ANZ325 NZHN-NZCH
Flight info
| Callsign | ANZ325 |
|---|---|
| Flight time | 1h 4m |
| Altitude | 34000 |
| Route | DADUK H479 NP H252 NS Y288 IPRAK |
| Aircraft | A320/M-SDE3FGHIRWY/LB1 |
Departure
| Time | 2026-04-16 00:12 |
|---|---|
| Airport | Hamilton International Airport (NZHN) |
Arrival
| Time | 2026-04-16 01:17 |
|---|---|
| Airport | Christchurch International Airport (NZCH) |
| Time | Latitude | Longitude | Altitude | Speed | Heading |
|---|---|---|---|---|---|
| 2026-04-15 23:53 | -37.86621 | 175.33552 | 172 ft | 0 kts | 88° |
| 2026-04-16 00:06 | -37.86622 | 175.33555 | 172 ft | 4 kts | 81° |
| 2026-04-16 00:06 | -37.86630 | 175.33545 | 172 ft | 4 kts | 37° |
| 2026-04-16 00:06 | -37.86644 | 175.33521 | 172 ft | 4 kts | 81° |
| 2026-04-16 00:06 | -37.86644 | 175.33505 | 172 ft | 1 kts | 5° |
| 2026-04-16 00:07 | -37.86645 | 175.33505 | 172 ft | 0 kts | 4° |
| 2026-04-16 00:09 | -37.86643 | 175.33505 | 172 ft | 2 kts | 4° |
| 2026-04-16 00:09 | -37.86601 | 175.33507 | 172 ft | 8 kts | 352° |
| 2026-04-16 00:09 | -37.86563 | 175.33452 | 172 ft | 10 kts | 287° |
| 2026-04-16 00:10 | -37.86543 | 175.33361 | 172 ft | 12 kts | 285° |
| 2026-04-16 00:10 | -37.86499 | 175.33284 | 173 ft | 12 kts | 358° |
| 2026-04-16 00:10 | -37.86394 | 175.33322 | 174 ft | 27 kts | 16° |
| 2026-04-16 00:10 | -37.86127 | 175.33419 | 173 ft | 46 kts | 16° |
| 2026-04-16 00:11 | -37.85812 | 175.33532 | 171 ft | 48 kts | 15° |
| 2026-04-16 00:11 | -37.85613 | 175.33613 | 170 ft | 6 kts | 37° |
| 2026-04-16 00:11 | -37.85587 | 175.33625 | 170 ft | 2 kts | 290° |
| 2026-04-16 00:11 | -37.85608 | 175.33605 | 170 ft | 7 kts | 197° |
| 2026-04-16 00:12 | -37.85752 | 175.33553 | 171 ft | 51 kts | 197° |
| 2026-04-16 00:12 | -37.86313 | 175.33351 | 174 ft | 112 kts | 196° |
| 2026-04-16 00:12 | -37.87183 | 175.33024 | 386 ft | 136 kts | 205° |
| 2026-04-16 00:12 | -37.88019 | 175.32550 | 1061 ft | 131 kts | 215° |
| 2026-04-16 00:13 | -37.88789 | 175.31954 | 1686 ft | 130 kts | 218° |
| 2026-04-16 00:13 | -37.89565 | 175.31365 | 2229 ft | 133 kts | 216° |
| 2026-04-16 00:13 | -37.90420 | 175.30716 | 2512 ft | 155 kts | 216° |
| 2026-04-16 00:13 | -37.91399 | 175.29963 | 2869 ft | 172 kts | 216° |
| 2026-04-16 00:14 | -37.92487 | 175.29115 | 3123 ft | 196 kts | 217° |
| 2026-04-16 00:14 | -37.93712 | 175.28128 | 3341 ft | 225 kts | 217° |
| 2026-04-16 00:14 | -37.95088 | 175.27047 | 4050 ft | 237 kts | 216° |
| 2026-04-16 00:14 | -37.96510 | 175.25963 | 5005 ft | 239 kts | 215° |
| 2026-04-16 00:15 | -37.97950 | 175.24886 | 5968 ft | 242 kts | 215° |
| 2026-04-16 00:15 | -37.99345 | 175.23674 | 6802 ft | 243 kts | 224° |
| 2026-04-16 00:15 | -38.00631 | 175.22269 | 7690 ft | 245 kts | 226° |
| 2026-04-16 00:15 | -38.01903 | 175.20809 | 8590 ft | 247 kts | 227° |
| 2026-04-16 00:16 | -38.03170 | 175.19312 | 9448 ft | 251 kts | 229° |
| 2026-04-16 00:16 | -38.04446 | 175.17772 | 10208 ft | 256 kts | 229° |
| 2026-04-16 00:16 | -38.05772 | 175.16191 | 10565 ft | 276 kts | 229° |
| 2026-04-16 00:16 | -38.07214 | 175.14468 | 10885 ft | 294 kts | 228° |
| 2026-04-16 00:17 | -38.08769 | 175.12645 | 11164 ft | 311 kts | 227° |
| 2026-04-16 00:17 | -38.10388 | 175.10790 | 11838 ft | 316 kts | 227° |
| 2026-04-16 00:17 | -38.12037 | 175.08926 | 12538 ft | 319 kts | 227° |
| 2026-04-16 00:17 | -38.13707 | 175.07016 | 13033 ft | 328 kts | 228° |
| 2026-04-16 00:18 | -38.15374 | 175.05062 | 13758 ft | 327 kts | 228° |
| 2026-04-16 00:18 | -38.17039 | 175.03141 | 14567 ft | 324 kts | 227° |
| 2026-04-16 00:18 | -38.18737 | 175.01221 | 15108 ft | 329 kts | 227° |
| 2026-04-16 00:18 | -38.20462 | 174.99282 | 15650 ft | 334 kts | 226° |
| 2026-04-16 00:19 | -38.22203 | 174.97324 | 16328 ft | 333 kts | 226° |
| 2026-04-16 00:19 | -38.23981 | 174.95398 | 16925 ft | 338 kts | 225° |
| 2026-04-16 00:19 | -38.25824 | 174.93514 | 17566 ft | 341 kts | 225° |
| 2026-04-16 00:19 | -38.27695 | 174.91652 | 18216 ft | 343 kts | 224° |
| 2026-04-16 00:20 | -38.29599 | 174.89804 | 18757 ft | 346 kts | 224° |
| 2026-04-16 00:20 | -38.31499 | 174.87955 | 19216 ft | 351 kts | 224° |
| 2026-04-16 00:20 | -38.33448 | 174.86051 | 19685 ft | 355 kts | 224° |
| 2026-04-16 00:20 | -38.35403 | 174.84127 | 20305 ft | 356 kts | 224° |
| 2026-04-16 00:21 | -38.37360 | 174.82189 | 20845 ft | 357 kts | 224° |
| 2026-04-16 00:21 | -38.39321 | 174.80233 | 21361 ft | 359 kts | 224° |
| 2026-04-16 00:21 | -38.41294 | 174.78262 | 21842 ft | 362 kts | 224° |
| 2026-04-16 00:21 | -38.43278 | 174.76276 | 22310 ft | 364 kts | 224° |
| 2026-04-16 00:22 | -38.45252 | 174.74302 | 22801 ft | 366 kts | 224° |
| 2026-04-16 00:22 | -38.47261 | 174.72290 | 23313 ft | 369 kts | 224° |
| 2026-04-16 00:22 | -38.49289 | 174.70261 | 23730 ft | 372 kts | 224° |
| 2026-04-16 00:22 | -38.51330 | 174.68222 | 24135 ft | 374 kts | 224° |
| 2026-04-16 00:23 | -38.53384 | 174.66172 | 24562 ft | 376 kts | 224° |
| 2026-04-16 00:23 | -38.55447 | 174.64113 | 25019 ft | 376 kts | 224° |
| 2026-04-16 00:23 | -38.57508 | 174.62053 | 25445 ft | 377 kts | 224° |
| 2026-04-16 00:23 | -38.59579 | 174.59977 | 25831 ft | 379 kts | 224° |
| 2026-04-16 00:24 | -38.61627 | 174.57921 | 26210 ft | 381 kts | 224° |
| 2026-04-16 00:24 | -38.63717 | 174.55822 | 26593 ft | 383 kts | 224° |
| 2026-04-16 00:24 | -38.65817 | 174.53711 | 26977 ft | 385 kts | 224° |
| 2026-04-16 00:24 | -38.67927 | 174.51588 | 27352 ft | 387 kts | 224° |
| 2026-04-16 00:25 | -38.70050 | 174.49450 | 27732 ft | 389 kts | 224° |
| 2026-04-16 00:25 | -38.72183 | 174.47302 | 28106 ft | 391 kts | 224° |
| 2026-04-16 00:25 | -38.74328 | 174.45138 | 28462 ft | 393 kts | 224° |
| 2026-04-16 00:25 | -38.76482 | 174.42964 | 28878 ft | 395 kts | 224° |
| 2026-04-16 00:26 | -38.78616 | 174.40813 | 29322 ft | 395 kts | 224° |
| 2026-04-16 00:26 | -38.80768 | 174.38643 | 29859 ft | 393 kts | 224° |
| 2026-04-16 00:26 | -38.82916 | 174.36479 | 30324 ft | 392 kts | 224° |
| 2026-04-16 00:26 | -38.85056 | 174.34316 | 30753 ft | 391 kts | 224° |
| 2026-04-16 00:27 | -38.87187 | 174.32158 | 31191 ft | 390 kts | 224° |
| 2026-04-16 00:27 | -38.89312 | 174.30003 | 31613 ft | 389 kts | 224° |
| 2026-04-16 00:27 | -38.91435 | 174.27851 | 32025 ft | 388 kts | 223° |
| 2026-04-16 00:27 | -38.93548 | 174.25708 | 32515 ft | 386 kts | 223° |
| 2026-04-16 00:28 | -38.95652 | 174.23569 | 32998 ft | 384 kts | 223° |
| 2026-04-16 00:28 | -38.97715 | 174.21470 | 33457 ft | 383 kts | 223° |
| 2026-04-16 00:28 | -38.99846 | 174.19409 | 33942 ft | 385 kts | 218° |
| 2026-04-16 00:28 | -39.02242 | 174.17816 | 34304 ft | 393 kts | 208° |
| 2026-04-16 00:29 | -39.04855 | 174.16703 | 34612 ft | 397 kts | 205° |
| 2026-04-16 00:29 | -39.07492 | 174.15638 | 34914 ft | 397 kts | 205° |
| 2026-04-16 00:29 | -39.10133 | 174.14566 | 35212 ft | 398 kts | 205° |
| 2026-04-16 00:29 | -39.12772 | 174.13489 | 35507 ft | 398 kts | 205° |
| 2026-04-16 00:30 | -39.15413 | 174.12409 | 35805 ft | 399 kts | 205° |
| 2026-04-16 00:30 | -39.18026 | 174.11341 | 36072 ft | 399 kts | 205° |
| 2026-04-16 00:30 | -39.20675 | 174.10256 | 36391 ft | 400 kts | 205° |
| 2026-04-16 00:30 | -39.23326 | 174.09168 | 36676 ft | 400 kts | 205° |
| 2026-04-16 00:31 | -39.25978 | 174.08082 | 36937 ft | 400 kts | 205° |
| 2026-04-16 00:31 | -39.28633 | 174.06993 | 37194 ft | 401 kts | 206° |
| 2026-04-16 00:31 | -39.31299 | 174.05899 | 37475 ft | 402 kts | 206° |
| 2026-04-16 00:31 | -39.33967 | 174.04803 | 37756 ft | 403 kts | 206° |
| 2026-04-16 00:32 | -39.39339 | 174.02593 | 37850 ft | 407 kts | 205° |
| 2026-04-16 00:32 | -39.44709 | 174.00385 | 37848 ft | 408 kts | 206° |
| 2026-04-16 00:33 | -39.50107 | 173.98155 | 37844 ft | 407 kts | 206° |
| 2026-04-16 00:33 | -39.55501 | 173.95910 | 37839 ft | 407 kts | 206° |
| 2026-04-16 00:34 | -39.60900 | 173.93682 | 37833 ft | 407 kts | 206° |
| 2026-04-16 00:34 | -39.66264 | 173.91466 | 37865 ft | 407 kts | 206° |
| 2026-04-16 00:35 | -39.71617 | 173.89245 | 37825 ft | 403 kts | 206° |
| 2026-04-16 00:35 | -39.76952 | 173.87024 | 37832 ft | 403 kts | 206° |
| 2026-04-16 00:36 | -39.82288 | 173.84802 | 37829 ft | 403 kts | 206° |
| 2026-04-16 00:36 | -39.87587 | 173.82584 | 37859 ft | 403 kts | 206° |
| 2026-04-16 00:37 | -39.92926 | 173.80352 | 37848 ft | 403 kts | 206° |
| 2026-04-16 00:37 | -39.98258 | 173.78127 | 37830 ft | 403 kts | 206° |
| 2026-04-16 00:38 | -40.03590 | 173.75892 | 37838 ft | 402 kts | 206° |
| 2026-04-16 00:38 | -40.08883 | 173.73665 | 37873 ft | 402 kts | 206° |
| 2026-04-16 00:39 | -40.14195 | 173.71431 | 37803 ft | 400 kts | 206° |
| 2026-04-16 00:39 | -40.19499 | 173.69194 | 37803 ft | 401 kts | 206° |
| 2026-04-16 00:40 | -40.24804 | 173.66953 | 37801 ft | 401 kts | 206° |
| 2026-04-16 00:40 | -40.30084 | 173.64728 | 37803 ft | 401 kts | 206° |
| 2026-04-16 00:41 | -40.35403 | 173.62478 | 37808 ft | 401 kts | 206° |
| 2026-04-16 00:41 | -40.40713 | 173.60220 | 37796 ft | 401 kts | 206° |
| 2026-04-16 00:42 | -40.46027 | 173.57957 | 37794 ft | 401 kts | 206° |
| 2026-04-16 00:42 | -40.51302 | 173.55714 | 37782 ft | 401 kts | 206° |
| 2026-04-16 00:43 | -40.56617 | 173.53455 | 37770 ft | 401 kts | 206° |
| 2026-04-16 00:43 | -40.61926 | 173.51192 | 37765 ft | 401 kts | 206° |
| 2026-04-16 00:44 | -40.67237 | 173.48921 | 37765 ft | 401 kts | 206° |
| 2026-04-16 00:44 | -40.72511 | 173.46665 | 37782 ft | 401 kts | 206° |
| 2026-04-16 00:45 | -40.77821 | 173.44391 | 37787 ft | 401 kts | 206° |
| 2026-04-16 00:45 | -40.83134 | 173.42106 | 37771 ft | 402 kts | 206° |
| 2026-04-16 00:46 | -40.88446 | 173.39818 | 37768 ft | 402 kts | 206° |
| 2026-04-16 00:46 | -40.93722 | 173.37542 | 37757 ft | 402 kts | 206° |
| 2026-04-16 00:47 | -40.99015 | 173.35249 | 37735 ft | 398 kts | 206° |
| 2026-04-16 00:47 | -41.04284 | 173.32973 | 37733 ft | 399 kts | 206° |
| 2026-04-16 00:48 | -41.09563 | 173.30683 | 37731 ft | 399 kts | 206° |
| 2026-04-16 00:48 | -41.14812 | 173.28410 | 37735 ft | 400 kts | 206° |
| 2026-04-16 00:50 | -41.35997 | 173.19367 | 37732 ft | 403 kts | 205° |
| 2026-04-16 00:51 | -41.41410 | 173.17357 | 37721 ft | 405 kts | 204° |
| 2026-04-16 00:51 | -41.46840 | 173.15322 | 37681 ft | 405 kts | 204° |
| 2026-04-16 00:52 | -41.52254 | 173.13248 | 37689 ft | 406 kts | 204° |
| 2026-04-16 00:52 | -41.57663 | 173.11162 | 37763 ft | 408 kts | 204° |
| 2026-04-16 00:53 | -41.63123 | 173.09052 | 37745 ft | 409 kts | 204° |
| 2026-04-16 00:53 | -41.68586 | 173.06938 | 37728 ft | 409 kts | 204° |
| 2026-04-16 00:54 | -41.74062 | 173.04817 | 37724 ft | 410 kts | 204° |
| 2026-04-16 00:54 | -41.79539 | 173.02686 | 37728 ft | 409 kts | 204° |
| 2026-04-16 00:55 | -41.84941 | 173.00595 | 37741 ft | 406 kts | 204° |
| 2026-04-16 00:55 | -41.90359 | 172.98482 | 37732 ft | 405 kts | 204° |
| 2026-04-16 00:56 | -41.95771 | 172.96369 | 36968 ft | 406 kts | 204° |
| 2026-04-16 00:56 | -41.98510 | 172.95294 | 35601 ft | 414 kts | 204° |
| 2026-04-16 00:56 | -42.01282 | 172.94206 | 34402 ft | 416 kts | 204° |
| 2026-04-16 00:57 | -42.06770 | 172.92059 | 31924 ft | 410 kts | 204° |
| 2026-04-16 00:57 | -42.09498 | 172.90997 | 30620 ft | 406 kts | 204° |
| 2026-04-16 00:57 | -42.12220 | 172.89936 | 29587 ft | 408 kts | 205° |
| 2026-04-16 00:58 | -42.14931 | 172.88879 | 28841 ft | 402 kts | 204° |
| 2026-04-16 00:58 | -42.17607 | 172.87837 | 28005 ft | 399 kts | 205° |
| 2026-04-16 00:58 | -42.20261 | 172.86790 | 27229 ft | 396 kts | 205° |
| 2026-04-16 00:58 | -42.22880 | 172.85754 | 26628 ft | 388 kts | 205° |
| 2026-04-16 00:59 | -42.25412 | 172.84756 | 26095 ft | 380 kts | 205° |
| 2026-04-16 00:59 | -42.27931 | 172.83762 | 25558 ft | 374 kts | 205° |
| 2026-04-16 00:59 | -42.30406 | 172.82788 | 25017 ft | 368 kts | 205° |
| 2026-04-16 00:59 | -42.32844 | 172.81829 | 24474 ft | 362 kts | 205° |
| 2026-04-16 01:00 | -42.35240 | 172.80886 | 23953 ft | 356 kts | 205° |
| 2026-04-16 01:00 | -42.37604 | 172.79950 | 23444 ft | 352 kts | 205° |
| 2026-04-16 01:00 | -42.39937 | 172.79025 | 22901 ft | 347 kts | 205° |
| 2026-04-16 01:00 | -42.42242 | 172.78113 | 22364 ft | 342 kts | 205° |
| 2026-04-16 01:01 | -42.44480 | 172.77228 | 21903 ft | 337 kts | 204° |
| 2026-04-16 01:01 | -42.46709 | 172.76341 | 21437 ft | 332 kts | 205° |
| 2026-04-16 01:01 | -42.48908 | 172.75466 | 20982 ft | 327 kts | 205° |
| 2026-04-16 01:01 | -42.51079 | 172.74599 | 20555 ft | 324 kts | 204° |
| 2026-04-16 01:02 | -42.53233 | 172.73738 | 20136 ft | 323 kts | 204° |
| 2026-04-16 01:02 | -42.55384 | 172.72877 | 19704 ft | 322 kts | 204° |
| 2026-04-16 01:02 | -42.57535 | 172.72012 | 19286 ft | 322 kts | 204° |
| 2026-04-16 01:02 | -42.59683 | 172.71147 | 18866 ft | 322 kts | 203° |
| 2026-04-16 01:03 | -42.61802 | 172.70299 | 18472 ft | 322 kts | 202° |
| 2026-04-16 01:03 | -42.63949 | 172.69445 | 18019 ft | 321 kts | 202° |
| 2026-04-16 01:03 | -42.66096 | 172.68595 | 17538 ft | 321 kts | 202° |
| 2026-04-16 01:03 | -42.68231 | 172.67747 | 17081 ft | 319 kts | 202° |
| 2026-04-16 01:04 | -42.70353 | 172.66900 | 16506 ft | 319 kts | 202° |
| 2026-04-16 01:04 | -42.72475 | 172.66052 | 15996 ft | 316 kts | 202° |
| 2026-04-16 01:04 | -42.74567 | 172.65217 | 15501 ft | 312 kts | 201° |
| 2026-04-16 01:04 | -42.76762 | 172.64843 | 14649 ft | 329 kts | 184° |
| 2026-04-16 01:05 | -42.79084 | 172.65103 | 13765 ft | 339 kts | 181° |
| 2026-04-16 01:05 | -42.81404 | 172.65410 | 13177 ft | 338 kts | 180° |
| 2026-04-16 01:05 | -42.83737 | 172.65743 | 12600 ft | 335 kts | 180° |
| 2026-04-16 01:05 | -42.86043 | 172.66078 | 12031 ft | 332 kts | 180° |
| 2026-04-16 01:06 | -42.88331 | 172.66407 | 11457 ft | 329 kts | 180° |
| 2026-04-16 01:06 | -42.90593 | 172.66730 | 11004 ft | 323 kts | 180° |
| 2026-04-16 01:06 | -42.92781 | 172.67044 | 10862 ft | 309 kts | 180° |
| 2026-04-16 01:06 | -42.94876 | 172.67343 | 10741 ft | 297 kts | 180° |
| 2026-04-16 01:07 | -42.96885 | 172.67624 | 10590 ft | 281 kts | 181° |
| 2026-04-16 01:07 | -42.98761 | 172.67884 | 10192 ft | 271 kts | 181° |
| 2026-04-16 01:07 | -43.00647 | 172.68137 | 9683 ft | 270 kts | 180° |
| 2026-04-16 01:07 | -43.02487 | 172.68380 | 9373 ft | 268 kts | 180° |
| 2026-04-16 01:08 | -43.04344 | 172.68629 | 9011 ft | 267 kts | 180° |
| 2026-04-16 01:08 | -43.06190 | 172.68879 | 8671 ft | 266 kts | 180° |
| 2026-04-16 01:08 | -43.08029 | 172.69133 | 8329 ft | 265 kts | 180° |
| 2026-04-16 01:08 | -43.09858 | 172.69387 | 7949 ft | 262 kts | 180° |
| 2026-04-16 01:09 | -43.11668 | 172.69638 | 7354 ft | 261 kts | 180° |
| 2026-04-16 01:09 | -43.13468 | 172.69886 | 6725 ft | 260 kts | 180° |
| 2026-04-16 01:09 | -43.15262 | 172.70131 | 6137 ft | 258 kts | 180° |
| 2026-04-16 01:09 | -43.17024 | 172.70374 | 5535 ft | 258 kts | 180° |
| 2026-04-16 01:10 | -43.18810 | 172.70623 | 4974 ft | 258 kts | 180° |
| 2026-04-16 01:10 | -43.20594 | 172.70871 | 4690 ft | 257 kts | 180° |
| 2026-04-16 01:10 | -43.22364 | 172.71118 | 4425 ft | 254 kts | 179° |
| 2026-04-16 01:10 | -43.24117 | 172.71361 | 4173 ft | 252 kts | 179° |
| 2026-04-16 01:11 | -43.25853 | 172.71600 | 3914 ft | 250 kts | 180° |
| 2026-04-16 01:11 | -43.27548 | 172.71836 | 3639 ft | 239 kts | 180° |
| 2026-04-16 01:11 | -43.29166 | 172.72064 | 3392 ft | 227 kts | 181° |
| 2026-04-16 01:11 | -43.30676 | 172.72255 | 3206 ft | 214 kts | 186° |
| 2026-04-16 01:12 | -43.32111 | 172.71976 | 3028 ft | 206 kts | 205° |
| 2026-04-16 01:12 | -43.33356 | 172.71096 | 2866 ft | 196 kts | 222° |
| 2026-04-16 01:12 | -43.34383 | 172.69923 | 2780 ft | 189 kts | 226° |
| 2026-04-16 01:12 | -43.35371 | 172.68795 | 2700 ft | 182 kts | 225° |
| 2026-04-16 01:13 | -43.36316 | 172.67713 | 2650 ft | 171 kts | 225° |
| 2026-04-16 01:13 | -43.37203 | 172.66695 | 2585 ft | 161 kts | 225° |
| 2026-04-16 01:13 | -43.38047 | 172.65724 | 2467 ft | 155 kts | 226° |
| 2026-04-16 01:13 | -43.38845 | 172.64807 | 2299 ft | 143 kts | 225° |
| 2026-04-16 01:14 | -43.39572 | 172.63970 | 2134 ft | 135 kts | 225° |
| 2026-04-16 01:14 | -43.40293 | 172.63139 | 1930 ft | 135 kts | 225° |
| 2026-04-16 01:14 | -43.41004 | 172.62321 | 1738 ft | 133 kts | 225° |
| 2026-04-16 01:14 | -43.41712 | 172.61507 | 1540 ft | 133 kts | 225° |
| 2026-04-16 01:15 | -43.42414 | 172.60695 | 1397 ft | 133 kts | 226° |
| 2026-04-16 01:15 | -43.43121 | 172.59879 | 1231 ft | 132 kts | 224° |
| 2026-04-16 01:15 | -43.43825 | 172.59070 | 1040 ft | 133 kts | 223° |
| 2026-04-16 01:15 | -43.44528 | 172.58262 | 846 ft | 132 kts | 223° |
| 2026-04-16 01:16 | -43.45237 | 172.57443 | 672 ft | 133 kts | 225° |
| 2026-04-16 01:16 | -43.45940 | 172.56630 | 539 ft | 134 kts | 225° |
| 2026-04-16 01:16 | -43.46657 | 172.55809 | 370 ft | 134 kts | 223° |
| 2026-04-16 01:16 | -43.47363 | 172.54989 | 191 ft | 132 kts | 223° |
| 2026-04-16 01:17 | -43.48040 | 172.54202 | 112 ft | 112 kts | 220° |
| 2026-04-16 01:17 | -43.48507 | 172.53663 | 107 ft | 63 kts | 220° |
| 2026-04-16 01:17 | -43.48717 | 172.53421 | 114 ft | 22 kts | 219° |
| 2026-04-16 01:17 | -43.48774 | 172.53355 | 114 ft | 6 kts | 215° |
| 2026-04-16 01:18 | -43.48811 | 172.53386 | 112 ft | 8 kts | 130° |
| 2026-04-16 01:18 | -43.48849 | 172.53452 | 112 ft | 7 kts | 126° |
| 2026-04-16 01:18 | -43.48886 | 172.53512 | 109 ft | 1 kts | 131° |
| 2026-04-16 01:19 | -43.48893 | 172.53526 | 109 ft | 4 kts | 120° |
| 2026-04-16 01:19 | -43.48876 | 172.53567 | 108 ft | 6 kts | 39° |
| 2026-04-16 01:20 | -43.48837 | 172.53612 | 108 ft | 8 kts | 40° |
| 2026-04-16 01:20 | -43.48797 | 172.53667 | 109 ft | 6 kts | 75° |
| 2026-04-16 01:20 | -43.48824 | 172.53715 | 108 ft | 6 kts | 133° |
| 2026-04-16 01:20 | -43.48847 | 172.53752 | 109 ft | 4 kts | 130° |
| 2026-04-16 01:21 | -43.48860 | 172.53774 | 109 ft | 0 kts | 130° |
| 2026-04-16 01:21 | -43.48865 | 172.53781 | 109 ft | 2 kts | 130° |
| 2026-04-16 01:21 | -43.48867 | 172.53785 | 107 ft | 0 kts | 130° |